Time,TemperatureF,DewpointF,PressureIn,WindDirection,WindDirectionDegrees,WindSpeedMPH,WindSpeedGustMPH,Humidity,HourlyPrecipIn,Conditions,Clouds,dailyrainin,SoftwareType,DateUTC
2013-01-31 00:00:00,34.3,28.2,-100.00,WSW,244,8.1,15.0,78,-99.99,,,0.00,LWC V2.10 B1813,2013-01-31 05:00:00,
2013-01-31 00:05:00,34.2,27.1,-100.00,SE,141,11.0,12.3,75,-99.99,,,0.00,LWC V2.10 B1813,2013-01-31 05:05:00,
2013-01-31 00:10:00,34.3,25.6,-100.00,SSW,207,15.0,21.9,70,-99.99,,,0.00,LWC V2.10 B1813,2013-01-31 05:10:00,
2013-01-31 00:15:00,34.3,24.9,-100.00,WSW,237,12.3,15.9,68,-99.99,,,0.00,LWC V2.10 B1813,2013-01-31 05:15:00,
2013-01-31 00:20:00,34.2,23.6,-100.00,SSW,200,15.0,28.4,65,-99.99,,,0.00,LWC V2.10 B1813,2013-01-31 05:20:00,
2013-01-31 00:25:00,34.2,23.3,-100.00,South,182,15.0,16.8,64,-99.99,,,0.00,LWC V2.10 B1813,2013-01-31 05:25:00,
2013-01-31 00:30:00,34.2,22.1,-100.00,SSW,210,25.7,25.7,61,-99.99,,,0.00,LWC V2.10 B1813,2013-01-31 05:30:00,
2013-01-31 00:35:00,34.0,23.5,-100.00,South,186,8.3,15.0,65,-99.99,,,0.00,LWC V2.10 B1813,2013-01-31 05:35:00,
2013-01-31 00:40:00,33.8,22.6,-100.00,SSW,195,18.8,18.8,63,-99.99,,,0.00,LWC V2.10 B1813,2013-01-31 05:40:00,
2013-01-31 00:42:00,33.8,22.2,-100.00,South,186,21.5,21.5,62,-99.99,,,0.00,LWC V2.10 B1813,2013-01-31 05:42:00,
2013-01-31 00:47:00,33.8,21.4,-100.00,SSW,205,10.5,21.9,60,-99.99,,,0.00,LWC V2.10 B1813,2013-01-31 05:47:00,
2013-01-31 00:52:00,33.8,20.6,-100.00,South,176,15.0,19.7,58,-99.99,,,0.00,LWC V2.10 B1813,2013-01-31 05:52:00,
2013-01-31 00:57:00,33.8,20.2,-100.00,SSW,212,13.2,13.2,57,-99.99,,,0.00,LWC V2.10 B1813,2013-01-31 05:57:00,
2013-01-31 01:02:00,33.8,20.2,-100.00,South,187,17.4,23.7,57,-99.99,,,0.00,LWC V2.10 B1813,2013-01-31 06:02:00,
2013-01-31 01:07:00,33.6,20.4,-100.00,South,172,11.4,17.4,58,-99.99,,,0.00,LWC V2.10 B1813,2013-01-31 06:07:00,
2013-01-31 01:12:00,33.6,20.4,-100.00,SSE,161,15.4,22.8,58,-99.99,,,0.00,LWC V2.10 B1813,2013-01-31 06:12:00,
2013-01-31 01:17:00,33.6,20.8,-100.00,SSW,195,11.0,14.5,59,-99.99,,,0.00,LWC V2.10 B1813,2013-01-31 06:17:00,
2013-01-31 01:22:00,33.6,20.4,-100.00,SSW,204,12.3,16.8,58,-99.99,,,0.00,LWC V2.10 B1813,2013-01-31 06:22:00,
2013-01-31 01:27:00,33.4,21.1,-100.00,South,189,11.0,22.8,60,-99.99,,,0.00,LWC V2.10 B1813,2013-01-31 06:27:00,
2013-01-31 01:32:00,33.3,20.9,-100.00,SW,227,24.6,24.6,60,-99.99,,,0.00,LWC V2.10 B1813,2013-01-31 06:32:00,
2013-01-31 01:34:00,33.4,20.7,-100.00,SSW,200,10.5,27.5,59,-99.99,,,0.00,LWC V2.10 B1813,2013-01-31 06:34:00,
2013-01-31 01:39:00,33.3,21.3,-100.00,SW,217,18.8,18.8,61,-99.99,,,0.00,LWC V2.10 B1813,2013-01-31 06:39:00,
2013-01-31 01:44:00,33.3,21.3,-100.00,SSW,195,11.4,18.8,61,-99.99,,,0.00,LWC V2.10 B1813,2013-01-31 06:44:00,
2013-01-31 01:49:00,32.9,20.9,-100.00,SSW,202,15.4,29.8,61,-99.99,,,0.00,LWC V2.10 B1813,2013-01-31 06:49:00,
2013-01-31 01:54:00,32.5,21.7,-100.00,South,186,14.1,23.3,64,-99.99,,,0.00,LWC V2.10 B1813,2013-01-31 06:54:00,
2013-01-31 01:59:00,32.4,21.9,-100.00,SW,226,22.8,22.8,65,-99.99,,,0.00,LWC V2.10 B1813,2013-01-31 06:59:00,
2013-01-31 02:04:00,32.2,21.0,-100.00,South,190,14.1,21.0,63,-99.99,,,0.00,LWC V2.10 B1813,2013-01-31 07:04:00,
2013-01-31 02:09:00,32.4,20.4,-100.00,SSE,168,18.8,31.5,61,-99.99,,,0.00,LWC V2.10 B1813,2013-01-31 07:09:00,
2013-01-31 02:14:00,32.2,20.3,-100.00,SW,235,33.3,33.3,61,-99.99,,,0.00,LWC V2.10 B1813,2013-01-31 07:14:00,
2013-01-31 02:19:00,32.0,20.1,-100.00,South,185,15.0,22.8,61,-99.99,,,0.00,LWC V2.10 B1813,2013-01-31 07:19:00,
2013-01-31 02:24:00,32.0,19.7,-100.00,South,179,13.6,15.0,60,-99.99,,,0.00,LWC V2.10 B1813,2013-01-31 07:24:00,
2013-01-31 02:29:00,32.0,20.1,-100.00,South,177,8.1,11.9,61,-99.99,,,0.00,LWC V2.10 B1813,2013-01-31 07:29:00,
2013-01-31 02:34:00,31.8,19.1,-100.00,SSW,198,13.2,17.9,59,-99.99,,,0.00,LWC V2.10 B1813,2013-01-31 07:34:00,
2013-01-31 02:39:00,31.6,19.0,-100.00,South,184,25.7,25.7,59,-99.99,,,0.00,LWC V2.10 B1813,2013-01-31 07:39:00,
2013-01-31 02:44:00,31.6,19.0,-100.00,SSW,206,17.0,17.0,59,-99.99,,,0.00,LWC V2.10 B1813,2013-01-31 07:44:00,
2013-01-31 02:49:00,31.6,18.6,-100.00,SSW,203,13.2,23.3,58,-99.99,,,0.00,LWC V2.10 B1813,2013-01-31 07:49:00,
2013-01-31 02:54:00,31.5,18.4,-100.00,SW,225,8.7,15.4,58,-99.99,,,0.00,LWC V2.10 B1813,2013-01-31 07:54:00,
2013-01-31 02:59:00,31.3,18.2,-100.00,SSW,203,14.5,15.4,58,-99.99,,,0.00,LWC V2.10 B1813,2013-01-31 07:59:00,
2013-01-31 03:04:00,31.1,17.7,-100.00,SW,229,10.5,21.5,57,-99.99,,,0.00,LWC V2.10 B1813,2013-01-31 08:04:00,
2013-01-31 03:09:00,31.1,17.7,-100.00,SSW,193,17.9,19.7,57,-99.99,,,0.00,LWC V2.10 B1813,2013-01-31 08:09:00,
2013-01-31 03:14:00,30.9,18.3,-100.00,SSW,212,7.6,15.0,59,-99.99,,,0.00,LWC V2.10 B1813,2013-01-31 08:14:00,
2013-01-31 03:19:00,30.9,17.1,-100.00,SSW,198,11.0,22.4,56,-99.99,,,0.00,LWC V2.10 B1813,2013-01-31 08:19:00,
2013-01-31 03:24:00,30.9,17.1,-100.00,SW,234,8.3,17.0,56,-99.99,,,0.00,LWC V2.10 B1813,2013-01-31 08:24:00,
2013-01-31 03:29:00,30.9,17.5,-100.00,SSW,204,12.8,22.4,57,-99.99,,,0.00,LWC V2.10 B1813,2013-01-31 08:29:00,
2013-01-31 03:34:00,30.6,17.6,-100.00,SW,214,11.0,22.8,58,-99.99,,,0.00,LWC V2.10 B1813,2013-01-31 08:34:00,
2013-01-31 03:39:00,30.4,17.8,-100.00,South,176,15.0,16.8,59,-99.99,,,0.00,LWC V2.10 B1813,2013-01-31 08:39:00,
2013-01-31 03:44:00,30.2,19.1,-100.00,SW,218,11.4,22.8,63,-99.99,,,0.00,LWC V2.10 B1813,2013-01-31 08:44:00,
2013-01-31 03:49:00,29.5,20.9,-100.00,SSE,167,12.8,19.2,70,-99.99,,,0.00,LWC V2.10 B1813,2013-01-31 08:49:00,
2013-01-31 03:54:00,29.7,20.4,-100.00,SSW,211,8.3,18.3,68,-99.99,,,0.00,LWC V2.10 B1813,2013-01-31 08:54:00,
2013-01-31 03:59:00,29.8,19.9,-100.00,SW,235,17.4,21.5,66,-99.99,,,0.00,LWC V2.10 B1813,2013-01-31 08:59:00,
2013-01-31 04:04:00,29.8,19.5,-100.00,SSW,211,10.5,11.9,65,-99.99,,,0.00,LWC V2.10 B1813,2013-01-31 09:04:00,
2013-01-31 04:09:00,29.7,18.6,-100.00,SSW,197,8.3,27.1,63,-99.99,,,0.00,LWC V2.10 B1813,2013-01-31 09:09:00,
2013-01-31 04:14:00,29.5,18.5,-100.00,South,187,15.0,15.0,63,-99.99,,,0.00,LWC V2.10 B1813,2013-01-31 09:14:00,
2013-01-31 04:19:00,29.3,18.3,-100.00,WSW,254,11.0,25.7,63,-99.99,,,0.00,LWC V2.10 B1813,2013-01-31 09:19:00,
2013-01-31 04:24:00,29.3,19.0,-100.00,SSE,160,8.3,12.3,65,-99.99,,,0.00,LWC V2.10 B1813,2013-01-31 09:24:00,
2013-01-31 04:29:00,29.1,18.8,-100.00,SW,214,10.5,21.5,65,-99.99,,,0.00,LWC V2.10 B1813,2013-01-31 09:29:00,
2013-01-31 04:34:00,28.9,18.7,-100.00,SSW,203,17.4,22.4,65,-99.99,,,0.00,LWC V2.10 B1813,2013-01-31 09:34:00,
2013-01-31 04:39:00,28.8,17.8,-100.00,SW,221,10.5,15.4,63,-99.99,,,0.00,LWC V2.10 B1813,2013-01-31 09:39:00,
2013-01-31 04:44:00,28.8,16.7,-100.00,SSW,210,9.6,32.4,60,-99.99,,,0.00,LWC V2.10 B1813,2013-01-31 09:44:00,
2013-01-31 04:49:00,28.6,16.9,-100.00,SW,235,11.0,21.9,61,-99.99,,,0.00,LWC V2.10 B1813,2013-01-31 09:49:00,
2013-01-31 04:54:00,28.4,17.4,-100.00,South,170,9.6,17.4,63,-99.99,,,0.00,LWC V2.10 B1813,2013-01-31 09:54:00,
2013-01-31 04:59:00,27.9,18.3,-100.00,West,263,12.8,18.8,67,-99.99,,,0.00,LWC V2.10 B1813,2013-01-31 09:59:00,
2013-01-31 05:04:00,27.7,14.9,-100.00,SW,221,11.0,17.0,58,-99.99,,,0.00,LWC V2.10 B1813,2013-01-31 10:04:00,
2013-01-31 05:09:00,27.9,14.2,-100.00,South,191,12.8,23.3,56,-99.99,,,0.00,LWC V2.10 B1813,2013-01-31 10:09:00,
2013-01-31 05:14:00,27.9,13.0,-100.00,South,187,15.9,15.9,53,-99.99,,,0.00,LWC V2.10 B1813,2013-01-31 10:14:00,
2013-01-31 05:19:00,27.7,12.8,-100.00,SSW,199,15.4,28.4,53,-99.99,,,0.00,LWC V2.10 B1813,2013-01-31 10:19:00,
2013-01-31 05:24:00,27.5,13.5,-100.00,SSW,202,15.4,19.7,55,-99.99,,,0.00,LWC V2.10 B1813,2013-01-31 10:24:00,
2013-01-31 05:29:00,27.5,13.9,-100.00,SW,215,18.3,18.3,56,-99.99,,,0.00,LWC V2.10 B1813,2013-01-31 10:29:00,
2013-01-31 05:34:00,27.1,14.3,-100.00,SSW,205,12.8,23.3,58,-99.99,,,0.00,LWC V2.10 B1813,2013-01-31 10:34:00,
2013-01-31 05:39:00,27.0,15.0,-100.00,SSW,198,14.5,15.4,60,-99.99,,,0.00,LWC V2.10 B1813,2013-01-31 10:39:00,
2013-01-31 05:44:00,27.0,15.0,-100.00,South,181,13.2,13.2,60,-99.99,,,0.00,LWC V2.10 B1813,2013-01-31 10:44:00,
2013-01-31 05:49:00,26.6,14.2,-100.00,South,191,19.2,25.1,59,-99.99,,,0.00,LWC V2.10 B1813,2013-01-31 10:49:00,
2013-01-31 05:54:00,26.2,13.5,-100.00,SSW,213,11.0,21.9,58,-99.99,,,0.00,LWC V2.10 B1813,2013-01-31 10:54:00,
2013-01-31 05:59:00,26.4,14.1,-100.00,SSW,204,13.2,16.8,59,-99.99,,,0.00,LWC V2.10 B1813,2013-01-31 10:59:00,
2013-01-31 06:04:00,26.2,12.7,-100.00,South,189,15.0,28.4,56,-99.99,,,0.00,LWC V2.10 B1813,2013-01-31 11:04:00,
2013-01-31 06:09:00,26.2,12.7,-100.00,South,189,15.4,21.0,56,-99.99,,,0.00,LWC V2.10 B1813,2013-01-31 11:09:00,
2013-01-31 06:14:00,25.5,12.4,-100.00,SSE,165,12.3,27.1,57,-99.99,,,0.00,LWC V2.10 B1813,2013-01-31 11:14:00,
2013-01-31 06:19:00,25.2,14.4,-100.00,SSW,203,11.0,21.9,63,-99.99,,,0.00,LWC V2.10 B1813,2013-01-31 11:19:00,
2013-01-31 06:24:00,25.0,14.5,-100.00,SSW,209,8.1,15.9,64,-99.99,,,0.00,LWC V2.10 B1813,2013-01-31 11:24:00,
2013-01-31 06:29:00,24.4,17.0,-100.00,SSW,205,18.8,18.8,73,-99.99,,,0.00,LWC V2.10 B1813,2013-01-31 11:29:00,
2013-01-31 06:34:00,24.4,16.1,-100.00,SSW,195,10.1,15.9,70,-99.99,,,0.00,LWC V2.10 B1813,2013-01-31 11:34:00,
2013-01-31 06:39:00,24.8,13.7,-100.00,SSW,204,9.2,19.2,62,-99.99,,,0.00,LWC V2.10 B1813,2013-01-31 11:39:00,
2013-01-31 06:44:00,24.8,12.9,-100.00,SSW,209,19.2,22.8,60,-99.99,,,0.00,LWC V2.10 B1813,2013-01-31 11:44:00,
2013-01-31 06:49:00,24.8,12.9,-100.00,SW,220,13.2,19.2,60,-99.99,,,0.00,LWC V2.10 B1813,2013-01-31 11:49:00,
2013-01-31 06:54:00,25.0,12.7,-100.00,SSW,198,15.0,15.0,59,-99.99,,,0.00,LWC V2.10 B1813,2013-01-31 11:54:00,
2013-01-31 06:59:00,25.0,12.7,-100.00,SSW,200,10.5,20.1,59,-99.99,,,0.00,LWC V2.10 B1813,2013-01-31 11:59:00,
2013-01-31 07:04:00,25.0,12.3,-100.00,SSE,166,8.1,15.0,58,-99.99,,,0.00,LWC V2.10 B1813,2013-01-31 12:04:00,
2013-01-31 07:09:00,25.0,11.5,-100.00,South,186,13.2,21.5,56,-99.99,,,0.00,LWC V2.10 B1813,2013-01-31 12:09:00,
2013-01-31 07:14:00,24.8,12.1,-100.00,SSW,194,10.5,15.0,58,-99.99,,,0.00,LWC V2.10 B1813,2013-01-31 12:14:00,
2013-01-31 07:19:00,24.8,12.1,-100.00,SSE,167,8.3,11.0,58,-99.99,,,0.00,LWC V2.10 B1813,2013-01-31 12:19:00,
2013-01-31 07:24:00,24.8,12.5,-100.00,SSW,207,8.7,17.4,59,-99.99,,,0.00,LWC V2.10 B1813,2013-01-31 12:24:00,
2013-01-31 07:29:00,24.8,13.3,-100.00,SSW,205,15.9,15.9,61,-99.99,,,0.00,LWC V2.10 B1813,2013-01-31 12:29:00,
2013-01-31 07:34:00,24.8,14.0,-100.00,South,180,12.8,17.0,63,-99.99,,,0.00,LWC V2.10 B1813,2013-01-31 12:34:00,
2013-01-31 07:39:00,24.8,15.4,-100.00,SW,224,8.3,12.8,67,-99.99,,,0.00,LWC V2.10 B1813,2013-01-31 12:39:00,
2013-01-31 07:44:00,23.9,16.5,-100.00,SW,234,21.9,21.9,73,-99.99,,,0.00,LWC V2.10 B1813,2013-01-31 12:44:00,
2013-01-31 07:49:00,24.3,12.4,-100.00,SSW,208,13.2,19.2,60,-99.99,,,0.00,LWC V2.10 B1813,2013-01-31 12:49:00,
2013-01-31 07:54:00,24.6,11.2,-100.00,SW,222,12.8,12.8,56,-99.99,,,0.00,LWC V2.10 B1813,2013-01-31 12:54:00,
2013-01-31 07:59:00,24.6,10.4,-100.00,SW,221,10.5,13.2,54,-99.99,,,0.00,LWC V2.10 B1813,2013-01-31 12:59:00,
2013-01-31 08:04:00,24.6,10.0,-100.00,SSW,207,12.8,18.3,53,-99.99,,,0.00,LWC V2.10 B1813,2013-01-31 13:04:00,
2013-01-31 08:09:00,24.4,10.2,-100.00,SW,230,10.5,24.2,54,-99.99,,,0.00,LWC V2.10 B1813,2013-01-31 13:09:00,
2013-01-31 08:15:00,24.3,10.9,-100.00,SW,214,21.0,21.0,56,-99.99,,,0.00,LWC V2.10 B1813,2013-01-31 13:15:00,
2013-01-31 08:20:00,24.1,10.3,-100.00,SW,215,18.8,24.2,55,-99.99,,,0.00,LWC V2.10 B1813,2013-01-31 13:20:00,
2013-01-31 08:25:00,24.4,10.2,-100.00,SSE,158,16.8,23.7,54,-99.99,,,0.00,LWC V2.10 B1813,2013-01-31 13:25:00,
2013-01-31 08:30:00,24.6,9.1,-100.00,SSW,196,14.5,15.9,51,-99.99,,,0.00,LWC V2.10 B1813,2013-01-31 13:30:00,
2013-01-31 08:35:00,24.8,8.8,-100.00,SSW,203,8.3,17.4,50,-99.99,,,0.00,LWC V2.10 B1813,2013-01-31 13:35:00,
2013-01-31 08:40:00,24.8,7.9,-100.00,SSW,197,11.4,22.8,48,-99.99,,,0.00,LWC V2.10 B1813,2013-01-31 13:40:00,
2013-01-31 08:45:00,24.6,7.8,-100.00,SE,145,10.5,17.0,48,-99.99,,,0.00,LWC V2.10 B1813,2013-01-31 13:45:00,
2013-01-31 08:50:00,24.8,8.4,-100.00,SSW,202,8.7,12.3,49,-99.99,,,0.00,LWC V2.10 B1813,2013-01-31 13:50:00,
2013-01-31 08:55:00,24.8,9.3,-100.00,South,176,12.3,12.3,51,-99.99,,,0.00,LWC V2.10 B1813,2013-01-31 13:55:00,
2013-01-31 09:00:00,24.6,9.5,-100.00,SSW,211,12.8,17.4,52,-99.99,,,0.00,LWC V2.10 B1813,2013-01-31 14:00:00,
2013-01-31 09:05:00,24.6,10.0,-100.00,SSE,163,10.1,13.2,53,-99.99,,,0.00,LWC V2.10 B1813,2013-01-31 14:05:00,
2013-01-31 09:10:00,24.6,10.4,-100.00,SSW,198,10.1,17.4,54,-99.99,,,0.00,LWC V2.10 B1813,2013-01-31 14:10:00,
2013-01-31 09:15:00,24.8,11.0,-100.00,SSW,210,8.7,15.0,55,-99.99,,,0.00,LWC V2.10 B1813,2013-01-31 14:15:00,
2013-01-31 09:20:00,24.4,11.0,-100.00,SSW,209,7.6,17.0,56,-99.99,,,0.00,LWC V2.10 B1813,2013-01-31 14:20:00,
2013-01-31 09:25:00,24.4,12.6,-100.00,South,173,8.7,15.4,60,-99.99,,,0.00,LWC V2.10 B1813,2013-01-31 14:25:00,
2013-01-31 09:30:00,24.4,12.9,-100.00,SSW,192,13.6,15.4,61,-99.99,,,0.00,LWC V2.10 B1813,2013-01-31 14:30:00,
2013-01-31 09:35:00,24.1,14.4,-100.00,SSW,213,19.7,22.4,66,-99.99,,,0.00,LWC V2.10 B1813,2013-01-31 14:35:00,
2013-01-31 09:40:00,23.9,16.5,-100.00,South,190,10.1,12.3,73,-99.99,,,0.00,LWC V2.10 B1813,2013-01-31 14:40:00,
2013-01-31 09:45:00,23.5,17.4,-100.00,SSW,209,11.9,17.4,77,-99.99,,,0.00,LWC V2.10 B1813,2013-01-31 14:45:00,
2013-01-31 09:50:00,23.0,16.9,-100.00,SW,218,10.5,18.8,77,-99.99,,,0.00,LWC V2.10 B1813,2013-01-31 14:50:00,
2013-01-31 09:55:00,23.5,16.8,-100.00,SW,217,10.5,10.5,75,-99.99,,,0.00,LWC V2.10 B1813,2013-01-31 14:55:00,
2013-01-31 10:00:00,23.5,16.5,-100.00,SW,218,6.3,12.8,74,-99.99,,,0.00,LWC V2.10 B1813,2013-01-31 15:00:00,
2013-01-31 10:05:00,23.5,16.5,-100.00,SW,217,8.3,13.2,74,-99.99,,,0.00,LWC V2.10 B1813,2013-01-31 15:05:00,
2013-01-31 10:10:00,23.2,15.5,-100.00,South,183,11.4,22.4,72,-99.99,,,0.00,LWC V2.10 B1813,2013-01-31 15:10:00,
2013-01-31 10:15:00,23.4,15.0,-100.00,WSW,237,13.2,17.0,70,-99.99,,,0.00,LWC V2.10 B1813,2013-01-31 15:15:00,
2013-01-31 10:20:00,23.5,13.5,-100.00,SSW,207,13.2,13.2,65,-99.99,,,0.00,LWC V2.10 B1813,2013-01-31 15:20:00,
2013-01-31 10:25:00,23.7,12.3,-100.00,SSW,210,8.1,15.4,61,-99.99,,,0.00,LWC V2.10 B1813,2013-01-31 15:25:00,
2013-01-31 10:30:00,24.3,11.6,-100.00,WSW,243,7.6,13.6,58,-99.99,,,0.00,LWC V2.10 B1813,2013-01-31 15:30:00,
2013-01-31 10:35:00,24.1,11.5,-100.00,South,190,15.0,15.0,58,-99.99,,,0.00,LWC V2.10 B1813,2013-01-31 15:35:00,
2013-01-31 10:40:00,23.4,13.7,-100.00,SSW,196,12.3,21.9,66,-99.99,,,0.00,LWC V2.10 B1813,2013-01-31 15:40:00,
2013-01-31 10:45:00,23.4,16.0,-100.00,SSW,207,8.1,13.2,73,-99.99,,,0.00,LWC V2.10 B1813,2013-01-31 15:45:00,
2013-01-31 10:50:00,22.8,15.8,-100.00,SW,220,19.2,19.2,74,-99.99,,,0.00,LWC V2.10 B1813,2013-01-31 15:50:00,
2013-01-31 10:55:00,22.8,14.5,-100.00,SSW,202,11.0,17.9,70,-99.99,,,0.00,LWC V2.10 B1813,2013-01-31 15:55:00,
2013-01-31 11:00:00,23.2,13.2,-100.00,SSW,208,13.2,16.8,65,-99.99,,,0.00,LWC V2.10 B1813,2013-01-31 16:00:00,
2013-01-31 11:05:00,23.4,10.4,-100.00,SE,130,15.0,17.9,57,-99.99,,,0.00,LWC V2.10 B1813,2013-01-31 16:05:00,
2013-01-31 11:10:00,23.4,8.4,-100.00,SSW,208,17.9,21.5,52,-99.99,,,0.00,LWC V2.10 B1813,2013-01-31 16:10:00,
2013-01-31 11:15:00,23.7,7.4,-100.00,South,184,11.4,15.4,49,-99.99,,,0.00,LWC V2.10 B1813,2013-01-31 16:15:00,
2013-01-31 11:20:00,24.1,6.3,-100.00,SW,221,16.8,25.1,46,-99.99,,,0.00,LWC V2.10 B1813,2013-01-31 16:20:00,
2013-01-31 11:25:00,24.1,5.4,-100.00,South,190,19.2,24.2,44,-99.99,,,0.00,LWC V2.10 B1813,2013-01-31 16:25:00,
2013-01-31 11:30:00,24.4,6.2,-100.00,SSW,202,15.4,15.4,45,-99.99,,,0.00,LWC V2.10 B1813,2013-01-31 16:30:00,
2013-01-31 11:35:00,24.3,6.0,-100.00,South,179,15.0,17.4,45,-99.99,,,0.00,LWC V2.10 B1813,2013-01-31 16:35:00,
2013-01-31 11:40:00,23.9,6.2,-100.00,SSW,204,10.5,15.0,46,-99.99,,,0.00,LWC V2.10 B1813,2013-01-31 16:40:00,
2013-01-31 11:45:00,23.7,6.5,-100.00,SSE,165,25.1,25.1,47,-99.99,,,0.00,LWC V2.10 B1813,2013-01-31 16:45:00,
2013-01-31 11:50:00,23.5,5.4,-100.00,South,191,17.4,28.4,45,-99.99,,,0.00,LWC V2.10 B1813,2013-01-31 16:50:00,
2013-01-31 11:55:00,23.7,5.0,-100.00,South,181,7.6,22.8,44,-99.99,,,0.00,LWC V2.10 B1813,2013-01-31 16:55:00,
2013-01-31 12:00:00,24.1,5.4,-100.00,South,180,17.0,19.7,44,-99.99,,,0.00,LWC V2.10 B1813,2013-01-31 17:00:00,
2013-01-31 12:05:00,23.7,5.0,-100.00,SSW,203,12.8,26.6,44,-99.99,,,0.00,LWC V2.10 B1813,2013-01-31 17:05:00,
2013-01-31 12:10:00,23.5,5.4,-100.00,SSW,208,16.3,24.2,45,-99.99,,,0.00,LWC V2.10 B1813,2013-01-31 17:10:00,
2013-01-31 12:15:00,23.9,5.7,-100.00,South,184,9.2,20.6,45,-99.99,,,0.00,LWC V2.10 B1813,2013-01-31 17:15:00,
2013-01-31 12:20:00,24.4,6.7,-100.00,SW,222,8.7,19.2,46,-99.99,,,0.00,LWC V2.10 B1813,2013-01-31 17:20:00,
2013-01-31 12:25:00,24.1,6.3,-100.00,SW,214,12.8,23.7,46,-99.99,,,0.00,LWC V2.10 B1813,2013-01-31 17:25:00,
2013-01-31 12:30:00,23.9,5.7,-100.00,SSW,209,17.0,17.4,45,-99.99,,,0.00,LWC V2.10 B1813,2013-01-31 17:30:00,
2013-01-31 12:35:00,24.8,7.0,-100.00,SW,216,15.0,16.8,46,-99.99,,,0.00,LWC V2.10 B1813,2013-01-31 17:35:00,
2013-01-31 12:40:00,24.8,6.5,-100.00,SW,234,12.8,17.4,45,-99.99,,,0.00,LWC V2.10 B1813,2013-01-31 17:40:00,
2013-01-31 12:45:00,25.0,7.2,-100.00,SW,232,11.9,17.0,46,-99.99,,,0.00,LWC V2.10 B1813,2013-01-31 17:45:00,
2013-01-31 12:50:00,24.8,6.5,-100.00,SSW,203,13.2,17.0,45,-99.99,,,0.00,LWC V2.10 B1813,2013-01-31 17:50:00,
2013-01-31 12:55:00,25.7,7.8,-100.00,South,190,7.6,11.4,46,-99.99,,,0.00,LWC V2.10 B1813,2013-01-31 17:55:00,
2013-01-31 13:00:00,25.5,7.2,-100.00,SSW,198,8.7,11.0,45,-99.99,,,0.00,LWC V2.10 B1813,2013-01-31 18:00:00,
2013-01-31 13:05:00,26.1,8.6,-100.00,South,170,10.1,17.4,47,-99.99,,,0.00,LWC V2.10 B1813,2013-01-31 18:05:00,
2013-01-31 13:10:00,25.7,8.8,-100.00,South,188,11.0,16.3,48,-99.99,,,0.00,LWC V2.10 B1813,2013-01-31 18:10:00,
2013-01-31 13:15:00,25.3,9.8,-100.00,SSE,150,10.5,13.2,51,-99.99,,,0.00,LWC V2.10 B1813,2013-01-31 18:15:00,
2013-01-31 13:20:00,24.4,9.8,-100.00,SSW,209,15.0,21.0,53,-99.99,,,0.00,LWC V2.10 B1813,2013-01-31 18:20:00,
2013-01-31 13:25:00,24.4,11.8,-100.00,SSE,168,6.3,15.9,58,-99.99,,,0.00,LWC V2.10 B1813,2013-01-31 18:25:00,
2013-01-31 13:30:00,25.2,12.1,-100.00,SSW,207,8.1,15.0,57,-99.99,,,0.00,LWC V2.10 B1813,2013-01-31 18:30:00,
2013-01-31 13:35:00,25.5,10.4,-100.00,SSW,192,18.3,18.3,52,-99.99,,,0.00,LWC V2.10 B1813,2013-01-31 18:35:00,
2013-01-31 13:40:00,26.1,9.5,-100.00,SSW,208,13.2,15.0,49,-99.99,,,0.00,LWC V2.10 B1813,2013-01-31 18:40:00,
2013-01-31 13:45:00,26.1,9.5,-100.00,South,177,19.7,19.7,49,-99.99,,,0.00,LWC V2.10 B1813,2013-01-31 18:45:00,
2013-01-31 13:50:00,26.4,9.9,-100.00,SSW,209,15.0,17.0,49,-99.99,,,0.00,LWC V2.10 B1813,2013-01-31 18:50:00,
2013-01-31 13:55:00,26.8,9.3,-100.00,South,189,12.8,13.2,47,-99.99,,,0.00,LWC V2.10 B1813,2013-01-31 18:55:00,
2013-01-31 14:00:00,26.4,9.0,-100.00,SSW,194,19.2,19.7,47,-99.99,,,0.00,LWC V2.10 B1813,2013-01-31 19:00:00,
2013-01-31 14:06:00,27.0,9.0,-100.00,South,191,17.0,17.0,46,-99.99,,,0.00,LWC V2.10 B1813,2013-01-31 19:06:00,
2013-01-31 14:11:00,26.8,7.8,-100.00,South,173,11.9,19.7,44,-99.99,,,0.00,LWC V2.10 B1813,2013-01-31 19:11:00,
2013-01-31 14:16:00,27.1,8.6,-100.00,SSW,209,15.4,15.4,45,-99.99,,,0.00,LWC V2.10 B1813,2013-01-31 19:16:00,
2013-01-31 14:21:00,27.3,9.3,-100.00,SSE,168,12.3,12.8,46,-99.99,,,0.00,LWC V2.10 B1813,2013-01-31 19:21:00,
2013-01-31 14:26:00,27.7,9.6,-100.00,SSW,213,8.3,17.4,46,-99.99,,,0.00,LWC V2.10 B1813,2013-01-31 19:26:00,
2013-01-31 14:31:00,27.7,9.1,-100.00,SSW,195,15.9,15.9,45,-99.99,,,0.00,LWC V2.10 B1813,2013-01-31 19:31:00,
2013-01-31 14:36:00,27.1,8.2,-100.00,SW,220,15.0,22.8,44,-99.99,,,0.00,LWC V2.10 B1813,2013-01-31 19:36:00,
2013-01-31 14:41:00,27.1,7.6,-100.00,SSE,160,10.1,22.8,43,-99.99,,,0.00,LWC V2.10 B1813,2013-01-31 19:41:00,
2013-01-31 14:46:00,27.3,7.8,-100.00,South,191,16.3,20.6,43,-99.99,,,0.00,LWC V2.10 B1813,2013-01-31 19:46:00,
2013-01-31 14:51:00,27.9,8.3,-100.00,SSW,210,14.5,14.5,43,-99.99,,,0.00,LWC V2.10 B1813,2013-01-31 19:51:00,
2013-01-31 14:56:00,28.2,8.6,-100.00,SSW,199,9.6,16.8,43,-99.99,,,0.00,LWC V2.10 B1813,2013-01-31 19:56:00,
2013-01-31 15:01:00,28.0,8.5,-100.00,South,182,12.3,24.6,43,-99.99,,,0.00,LWC V2.10 B1813,2013-01-31 20:01:00,
2013-01-31 15:06:00,27.5,8.5,-100.00,SSW,202,17.4,20.1,44,-99.99,,,0.00,LWC V2.10 B1813,2013-01-31 20:06:00,
2013-01-31 15:11:00,28.4,9.8,-100.00,South,179,14.5,14.5,45,-99.99,,,0.00,LWC V2.10 B1813,2013-01-31 20:11:00,
2013-01-31 15:16:00,27.9,9.3,-100.00,SSE,159,12.3,15.4,45,-99.99,,,0.00,LWC V2.10 B1813,2013-01-31 20:16:00,
2013-01-31 15:21:00,28.6,8.4,-100.00,South,187,13.2,15.4,42,-99.99,,,0.00,LWC V2.10 B1813,2013-01-31 20:21:00,
2013-01-31 15:26:00,28.0,7.9,-100.00,South,191,13.6,22.4,42,-99.99,,,0.00,LWC V2.10 B1813,2013-01-31 20:26:00,
2013-01-31 15:31:00,28.2,8.1,-100.00,SSW,199,17.4,17.4,42,-99.99,,,0.00,LWC V2.10 B1813,2013-01-31 20:31:00,
2013-01-31 15:36:00,28.0,7.9,-100.00,South,183,13.2,17.9,42,-99.99,,,0.00,LWC V2.10 B1813,2013-01-31 20:36:00,
2013-01-31 15:41:00,28.4,8.3,-100.00,South,180,15.0,15.4,42,-99.99,,,0.00,LWC V2.10 B1813,2013-01-31 20:41:00,
2013-01-31 15:46:00,28.8,8.6,-100.00,SSW,203,13.2,21.5,42,-99.99,,,0.00,LWC V2.10 B1813,2013-01-31 20:46:00,
2013-01-31 15:51:00,28.0,8.5,-100.00,South,188,17.0,18.8,43,-99.99,,,0.00,LWC V2.10 B1813,2013-01-31 20:51:00,
2013-01-31 15:56:00,29.5,9.3,-100.00,South,182,11.0,23.3,42,-99.99,,,0.00,LWC V2.10 B1813,2013-01-31 20:56:00,
2013-01-31 16:01:00,28.9,8.8,-100.00,SSE,166,13.2,15.4,42,-99.99,,,0.00,LWC V2.10 B1813,2013-01-31 21:01:00,
2013-01-31 16:06:00,28.6,8.4,-100.00,SSW,198,14.5,15.0,42,-99.99,,,0.00,LWC V2.10 B1813,2013-01-31 21:06:00,
2013-01-31 16:11:00,27.9,8.8,-100.00,SSW,197,19.2,19.2,44,-99.99,,,0.00,LWC V2.10 B1813,2013-01-31 21:11:00,
2013-01-31 16:16:00,27.3,9.8,-100.00,South,170,12.3,16.8,47,-99.99,,,0.00,LWC V2.10 B1813,2013-01-31 21:16:00,
2013-01-31 16:21:00,27.1,12.3,-100.00,SSE,165,10.5,12.3,53,-99.99,,,0.00,LWC V2.10 B1813,2013-01-31 21:21:00,
2013-01-31 16:26:00,27.5,13.9,-100.00,SW,221,10.5,18.3,56,-99.99,,,0.00,LWC V2.10 B1813,2013-01-31 21:26:00,
2013-01-31 16:31:00,27.9,13.0,-100.00,SSW,197,11.0,15.9,53,-99.99,,,0.00,LWC V2.10 B1813,2013-01-31 21:31:00,
2013-01-31 16:36:00,27.7,11.0,-100.00,SSE,167,13.2,19.7,49,-99.99,,,0.00,LWC V2.10 B1813,2013-01-31 21:36:00,
2013-01-31 16:41:00,27.5,10.4,-100.00,SSW,193,8.1,14.5,48,-99.99,,,0.00,LWC V2.10 B1813,2013-01-31 21:41:00,
2013-01-31 16:46:00,27.1,10.1,-100.00,SW,226,17.4,20.1,48,-99.99,,,0.00,LWC V2.10 B1813,2013-01-31 21:46:00,
2013-01-31 16:51:00,27.1,11.0,-100.00,South,178,8.7,10.5,50,-99.99,,,0.00,LWC V2.10 B1813,2013-01-31 21:51:00,
2013-01-31 16:56:00,27.1,10.5,-100.00,SSW,200,13.2,13.2,49,-99.99,,,0.00,LWC V2.10 B1813,2013-01-31 21:56:00,
2013-01-31 17:01:00,27.3,10.2,-100.00,South,180,8.1,12.3,48,-99.99,,,0.00,LWC V2.10 B1813,2013-01-31 22:01:00,
2013-01-31 17:06:00,27.5,9.0,-100.00,South,186,14.1,14.5,45,-99.99,,,0.00,LWC V2.10 B1813,2013-01-31 22:06:00,
2013-01-31 17:11:00,27.9,8.8,-100.00,SW,215,16.3,16.3,44,-99.99,,,0.00,LWC V2.10 B1813,2013-01-31 22:11:00,
2013-01-31 17:16:00,28.6,8.4,-100.00,SW,222,12.3,13.6,42,-99.99,,,0.00,LWC V2.10 B1813,2013-01-31 22:16:00,
2013-01-31 17:21:00,28.4,8.8,-100.00,SSW,208,10.5,12.3,43,-99.99,,,0.00,LWC V2.10 B1813,2013-01-31 22:21:00,
2013-01-31 17:26:00,28.0,8.5,-100.00,South,186,22.4,22.4,43,-99.99,,,0.00,LWC V2.10 B1813,2013-01-31 22:26:00,
2013-01-31 17:31:00,27.7,7.6,-100.00,SSW,211,13.2,13.2,42,-99.99,,,0.00,LWC V2.10 B1813,2013-01-31 22:31:00,
2013-01-31 17:36:00,27.5,8.0,-100.00,South,186,11.4,17.4,43,-99.99,,,0.00,LWC V2.10 B1813,2013-01-31 22:36:00,
2013-01-31 17:41:00,27.3,7.8,-100.00,SSW,203,8.7,17.0,43,-99.99,,,0.00,LWC V2.10 B1813,2013-01-31 22:41:00,
2013-01-31 17:46:00,27.3,7.8,-100.00,SSW,209,8.1,12.8,43,-99.99,,,0.00,LWC V2.10 B1813,2013-01-31 22:46:00,
2013-01-31 17:51:00,27.1,7.6,-100.00,South,169,10.5,17.0,43,-99.99,,,0.00,LWC V2.10 B1813,2013-01-31 22:51:00,
2013-01-31 17:56:00,27.1,8.2,-100.00,SW,219,10.5,11.0,44,-99.99,,,0.00,LWC V2.10 B1813,2013-01-31 22:56:00,
2013-01-31 18:01:00,27.0,8.5,-100.00,SSE,166,8.3,10.1,45,-99.99,,,0.00,LWC V2.10 B1813,2013-01-31 23:01:00,
2013-01-31 18:06:00,27.0,8.5,-100.00,South,191,10.1,11.9,45,-99.99,,,0.00,LWC V2.10 B1813,2013-01-31 23:06:00,
2013-01-31 18:11:00,27.0,9.0,-100.00,South,185,10.5,15.0,46,-99.99,,,0.00,LWC V2.10 B1813,2013-01-31 23:11:00,
2013-01-31 18:16:00,26.8,8.8,-100.00,SSE,167,8.7,11.9,46,-99.99,,,0.00,LWC V2.10 B1813,2013-01-31 23:16:00,
2013-01-31 18:21:00,26.6,9.6,-100.00,SSW,204,5.8,8.3,48,-99.99,,,0.00,LWC V2.10 B1813,2013-01-31 23:21:00,
2013-01-31 18:26:00,26.4,9.4,-100.00,SSE,164,7.6,8.3,48,-99.99,,,0.00,LWC V2.10 B1813,2013-01-31 23:26:00,
2013-01-31 18:31:00,26.6,9.6,-100.00,SSW,212,10.5,10.5,48,-99.99,,,0.00,LWC V2.10 B1813,2013-01-31 23:31:00,
2013-01-31 18:36:00,26.6,10.0,-100.00,South,181,8.3,13.2,49,-99.99,,,0.00,LWC V2.10 B1813,2013-01-31 23:36:00,
2013-01-31 18:41:00,26.6,10.0,-100.00,SSW,204,5.8,8.1,49,-99.99,,,0.00,LWC V2.10 B1813,2013-01-31 23:41:00,
2013-01-31 18:46:00,26.8,10.7,-100.00,SSW,203,5.4,5.8,50,-99.99,,,0.00,LWC V2.10 B1813,2013-01-31 23:46:00,
2013-01-31 18:51:00,26.8,10.2,-100.00,South,186,6.3,12.8,49,-99.99,,,0.00,LWC V2.10 B1813,2013-01-31 23:51:00,
2013-01-31 18:56:00,27.0,10.4,-100.00,SSW,198,8.1,8.7,49,-99.99,,,0.00,LWC V2.10 B1813,2013-01-31 23:56:00,
2013-01-31 19:01:00,27.0,10.4,-100.00,SSW,212,5.4,7.6,49,-99.99,,,0.00,LWC V2.10 B1813,2013-02-01 00:01:00,
2013-01-31 19:06:00,27.0,10.8,-100.00,SSW,198,6.3,8.7,50,-99.99,,,0.00,LWC V2.10 B1813,2013-02-01 00:06:00,
2013-01-31 19:11:00,27.0,10.8,-100.00,South,183,6.3,10.5,50,-99.99,,,0.00,LWC V2.10 B1813,2013-02-01 00:11:00,
2013-01-31 19:16:00,27.0,11.3,-100.00,SW,218,3.6,5.8,51,-99.99,,,0.00,LWC V2.10 B1813,2013-02-01 00:16:00,
2013-01-31 19:21:00,26.6,13.8,-100.00,SSW,209,14.5,14.5,58,-99.99,,,0.00,LWC V2.10 B1813,2013-02-01 00:21:00,
2013-01-31 19:26:00,26.1,16.6,-100.00,South,183,9.6,13.6,67,-99.99,,,0.00,LWC V2.10 B1813,2013-02-01 00:26:00,
2013-01-31 19:31:00,25.3,18.5,-100.00,SW,215,5.4,8.3,75,-99.99,,,0.00,LWC V2.10 B1813,2013-02-01 00:31:00,
2013-01-31 19:36:00,25.2,19.3,-100.00,SSW,209,5.8,10.1,78,-99.99,,,0.00,LWC V2.10 B1813,2013-02-01 00:36:00,
2013-01-31 19:41:00,25.0,19.7,-100.00,SSW,196,6.3,6.3,80,-99.99,,,0.00,LWC V2.10 B1813,2013-02-01 00:41:00,
2013-01-31 19:46:00,25.0,20.0,-100.00,South,191,8.7,10.1,81,-99.99,,,0.00,LWC V2.10 B1813,2013-02-01 00:46:00,
2013-01-31 19:51:00,25.0,20.3,-100.00,South,187,8.1,10.5,82,-99.99,,,0.00,LWC V2.10 B1813,2013-02-01 00:51:00,
2013-01-31 19:56:00,24.8,20.4,-100.00,SW,223,8.7,8.7,83,-99.99,,,0.00,LWC V2.10 B1813,2013-02-01 00:56:00,
2013-01-31 20:01:00,24.6,20.2,-100.00,SSW,195,5.8,8.1,83,-99.99,,,0.00,LWC V2.10 B1813,2013-02-01 01:01:00,
2013-01-31 20:06:00,24.6,20.2,-100.00,SSW,205,4.0,7.6,83,-99.99,,,0.00,LWC V2.10 B1813,2013-02-01 01:06:00,
2013-01-31 20:11:00,24.4,19.7,-100.00,SW,219,8.1,8.7,82,-99.99,,,0.00,LWC V2.10 B1813,2013-02-01 01:11:00,
2013-01-31 20:16:00,24.6,19.6,-100.00,SSW,203,8.1,8.1,81,-99.99,,,0.00,LWC V2.10 B1813,2013-02-01 01:16:00,
2013-01-31 20:21:00,24.8,19.8,-100.00,SSW,204,6.3,7.6,81,-99.99,,,0.00,LWC V2.10 B1813,2013-02-01 01:21:00,
2013-01-31 20:26:00,24.8,19.5,-100.00,WSW,240,5.8,5.8,80,-99.99,,,0.00,LWC V2.10 B1813,2013-02-01 01:26:00,
2013-01-31 20:31:00,24.8,19.5,-100.00,SSW,206,5.8,10.1,80,-99.99,,,0.00,LWC V2.10 B1813,2013-02-01 01:31:00,
2013-01-31 20:36:00,25.0,19.4,-100.00,SW,232,6.3,10.1,79,-99.99,,,0.00,LWC V2.10 B1813,2013-02-01 01:36:00,
2013-01-31 20:41:00,25.0,19.7,-100.00,SW,217,6.3,6.3,80,-99.99,,,0.00,LWC V2.10 B1813,2013-02-01 01:41:00,
2013-01-31 20:46:00,24.8,19.5,-100.00,South,186,5.8,6.7,80,-99.99,,,0.00,LWC V2.10 B1813,2013-02-01 01:46:00,
2013-01-31 20:51:00,24.6,19.3,-100.00,SW,221,4.9,6.3,80,-99.99,,,0.00,LWC V2.10 B1813,2013-02-01 01:51:00,
2013-01-31 20:57:00,24.4,19.5,-100.00,WSW,256,5.8,6.3,81,-99.99,,,0.00,LWC V2.10 B1813,2013-02-01 01:57:00,
2013-01-31 21:02:00,24.4,19.5,-100.00,South,190,3.6,4.0,81,-99.99,,,0.00,LWC V2.10 B1813,2013-02-01 02:02:00,
2013-01-31 21:07:00,24.6,19.9,-100.00,SW,230,10.1,10.1,82,-99.99,,,0.00,LWC V2.10 B1813,2013-02-01 02:07:00,
2013-01-31 21:12:00,24.8,19.8,-100.00,SSW,212,5.8,7.6,81,-99.99,,,0.00,LWC V2.10 B1813,2013-02-01 02:12:00,
2013-01-31 21:17:00,24.8,19.5,-100.00,South,182,2.7,6.3,80,-99.99,,,0.00,LWC V2.10 B1813,2013-02-01 02:17:00,
2013-01-31 21:22:00,24.8,19.8,-100.00,WSW,242,6.3,10.1,81,-99.99,,,0.00,LWC V2.10 B1813,2013-02-01 02:22:00,
2013-01-31 21:27:00,24.4,19.7,-100.00,WSW,257,4.0,9.6,82,-99.99,,,0.00,LWC V2.10 B1813,2013-02-01 02:27:00,
2013-01-31 21:32:00,24.4,20.3,-100.00,West,274,6.3,6.3,84,-99.99,,,0.00,LWC V2.10 B1813,2013-02-01 02:32:00,
2013-01-31 21:37:00,23.7,19.0,-100.00,West,260,5.8,8.3,82,-99.99,,,0.00,LWC V2.10 B1813,2013-02-01 02:37:00,
2013-01-31 21:42:00,23.4,18.7,-100.00,WSW,244,11.9,13.2,82,-99.99,,,0.00,LWC V2.10 B1813,2013-02-01 02:42:00,
2013-01-31 21:47:00,23.4,19.0,-100.00,WSW,250,5.4,10.1,83,-99.99,,,0.00,LWC V2.10 B1813,2013-02-01 02:47:00,
2013-01-31 21:52:00,23.0,18.6,-100.00,West,275,3.6,6.3,83,-99.99,,,0.00,LWC V2.10 B1813,2013-02-01 02:52:00,
2013-01-31 21:57:00,22.5,17.5,-100.00,SSE,150,3.1,8.7,81,-99.99,,,0.00,LWC V2.10 B1813,2013-02-01 02:57:00,
2013-01-31 22:02:00,22.3,17.4,-100.00,WNW,297,8.1,12.8,81,-99.99,,,0.00,LWC V2.10 B1813,2013-02-01 03:02:00,
2013-01-31 22:07:00,22.1,17.2,-100.00,NW,324,10.5,13.2,81,-99.99,,,0.00,LWC V2.10 B1813,2013-02-01 03:07:00,
2013-01-31 22:12:00,22.1,16.9,-100.00,WSW,239,5.8,10.1,80,-99.99,,,0.00,LWC V2.10 B1813,2013-02-01 03:12:00,
2013-01-31 22:17:00,21.9,15.2,-100.00,West,263,8.1,14.5,75,-99.99,,,0.00,LWC V2.10 B1813,2013-02-01 03:17:00,
2013-01-31 22:22:00,21.9,14.6,-100.00,SSW,194,6.3,10.5,73,-99.99,,,0.00,LWC V2.10 B1813,2013-02-01 03:22:00,
2013-01-31 22:27:00,22.1,14.2,-100.00,WSW,255,8.1,8.1,71,-99.99,,,0.00,LWC V2.10 B1813,2013-02-01 03:27:00,
2013-01-31 22:32:00,22.3,13.7,-100.00,SW,230,8.3,10.5,69,-99.99,,,0.00,LWC V2.10 B1813,2013-02-01 03:32:00,
2013-01-31 22:37:00,22.5,12.8,-100.00,NW,305,2.7,3.6,66,-99.99,,,0.00,LWC V2.10 B1813,2013-02-01 03:37:00,
2013-01-31 22:42:00,22.3,13.4,-100.00,WSW,237,4.0,8.1,68,-99.99,,,0.00,LWC V2.10 B1813,2013-02-01 03:42:00,
2013-01-31 22:47:00,22.1,13.5,-100.00,West,277,2.7,5.8,69,-99.99,,,0.00,LWC V2.10 B1813,2013-02-01 03:47:00,
2013-01-31 22:52:00,22.1,13.8,-100.00,South,185,5.8,5.8,70,-99.99,,,0.00,LWC V2.10 B1813,2013-02-01 03:52:00,
2013-01-31 22:57:00,21.9,13.7,-100.00,West,266,7.6,11.0,70,-99.99,,,0.00,LWC V2.10 B1813,2013-02-01 03:57:00,
2013-01-31 23:02:00,21.9,13.7,-100.00,West,277,4.0,6.3,70,-99.99,,,0.00,LWC V2.10 B1813,2013-02-01 04:02:00,
2013-01-31 23:07:00,21.9,13.0,-100.00,SW,231,8.1,8.7,68,-99.99,,,0.00,LWC V2.10 B1813,2013-02-01 04:07:00,
2013-01-31 23:12:00,21.9,13.0,-100.00,WSW,247,10.1,10.1,68,-99.99,,,0.00,LWC V2.10 B1813,2013-02-01 04:12:00,
2013-01-31 23:17:00,21.9,13.0,-100.00,West,270,4.9,7.6,68,-99.99,,,0.00,LWC V2.10 B1813,2013-02-01 04:17:00,
2013-01-31 23:22:00,21.6,13.6,-100.00,WSW,237,3.1,12.3,71,-99.99,,,0.00,LWC V2.10 B1813,2013-02-01 04:22:00,
2013-01-31 23:27:00,21.6,14.0,-100.00,WSW,237,10.1,10.1,72,-99.99,,,0.00,LWC V2.10 B1813,2013-02-01 04:27:00,
2013-01-31 23:32:00,21.4,14.4,-100.00,WSW,249,9.6,12.8,74,-99.99,,,0.00,LWC V2.10 B1813,2013-02-01 04:32:00,
2013-01-31 23:37:00,21.0,12.8,-100.00,SW,236,12.8,14.5,70,-99.99,,,0.00,LWC V2.10 B1813,2013-02-01 04:37:00,
2013-01-31 23:42:00,20.8,11.6,-100.00,SW,222,9.6,10.5,67,-99.99,,,0.00,LWC V2.10 B1813,2013-02-01 04:42:00,
2013-01-31 23:47:00,20.5,12.3,-100.00,WSW,239,9.6,11.0,70,-99.99,,,0.00,LWC V2.10 B1813,2013-02-01 04:47:00,
2013-01-31 23:52:00,20.5,12.9,-100.00,NW,310,10.1,10.1,72,-99.99,,,0.00,LWC V2.10 B1813,2013-02-01 04:52:00,
2013-01-31 23:57:00,20.3,12.4,-100.00,WNW,299,5.8,15.4,71,-99.99,,,0.00,LWC V2.10 B1813,2013-02-01 04:57:00,